Time;durP1;ratioP1;P1;durP2;ratioP2;P2;SDS_P1;SDS_P2;PMS_P1;PMS_P2;Temp;Humidity;BMP_temperature;BMP_pressure;BME280_temperature;BME280_humidity;BME280_pressure;Samples;Min_cycle;Max_cycle;Signal;HPM_P1;HPM_P2
2023/03/06 00:00:52;;;;;;;4.57;1.90;;;;;;;;;;4965208;28;20042;-80
2023/03/06 00:03:19;;;;;;;2.42;1.98;;;;;;;;;;4991121;28;20042;-80
2023/03/06 00:05:45;;;;;;;3.28;2.17;;;;;;;;;;4978454;28;20127;-81
2023/03/06 00:08:11;;;;;;;2.50;1.60;;;;;;;;;;5000395;28;20089;-80
2023/03/06 00:10:37;;;;;;;4.00;1.65;;;;;;;;;;4989788;28;20487;-80
2023/03/06 00:13:05;;;;;;;1.88;1.45;;;;;;;;;;4977124;28;20055;-80
2023/03/06 00:15:31;;;;;;;4.25;1.50;;;;;;;;;;4974697;28;20100;-81
2023/03/06 00:17:57;;;;;;;2.42;1.73;;;;;;;;;;4996580;28;20827;-80
2023/03/06 00:20:24;;;;;;;5.63;1.60;;;;;;;;;;4976830;28;20050;-80
2023/03/06 00:22:50;;;;;;;3.42;1.70;;;;;;;;;;4972450;28;20104;-80
2023/03/06 00:25:18;;;;;;;3.55;1.80;;;;;;;;;;4973708;28;20379;-80
2023/03/06 00:27:44;;;;;;;3.63;1.92;;;;;;;;;;4968871;28;20417;-80
2023/03/06 00:30:11;;;;;;;5.72;1.92;;;;;;;;;;5002732;28;20058;-80
2023/03/06 00:32:37;;;;;;;5.55;2.20;;;;;;;;;;4992464;28;20126;-80
2023/03/06 00:35:03;;;;;;;5.70;1.95;;;;;;;;;;4990765;28;20096;-80
2023/03/06 00:37:29;;;;;;;4.57;1.75;;;;;;;;;;4986660;28;20129;-80
2023/03/06 00:39:55;;;;;;;2.40;1.75;;;;;;;;;;4977446;28;20129;-80
2023/03/06 00:42:21;;;;;;;2.70;1.67;;;;;;;;;;4967794;28;20038;-80
2023/03/06 00:44:47;;;;;;;2.90;1.70;;;;;;;;;;4971709;28;20129;-80
2023/03/06 00:47:17;;;;;;;3.00;1.30;;;;;;;;;;4987886;28;20569;-80
2023/03/06 00:49:44;;;;;;;3.83;1.50;;;;;;;;;;4978684;28;20046;-80
2023/03/06 00:52:10;;;;;;;2.75;1.60;;;;;;;;;;5004834;28;20129;-80
2023/03/06 00:54:36;;;;;;;2.47;1.40;;;;;;;;;;4985090;28;20121;-80
2023/03/06 00:57:02;;;;;;;3.22;1.50;;;;;;;;;;4972565;28;20470;-80
2023/03/06 00:59:28;;;;;;;3.92;1.58;;;;;;;;;;4971288;28;20046;-80
2023/03/06 01:01:54;;;;;;;4.70;1.60;;;;;;;;;;4982685;28;20045;-80
2023/03/06 01:04:21;;;;;;;2.97;1.40;;;;;;;;;;4981988;28;20050;-80
2023/03/06 01:06:47;;;;;;;4.68;1.52;;;;;;;;;;4965495;28;20455;-80
2023/03/06 01:09:13;;;;;;;5.07;1.50;;;;;;;;;;4982942;28;20085;-80
2023/03/06 01:11:39;;;;;;;6.05;1.50;;;;;;;;;;4959011;28;20070;-80
2023/03/06 01:14:05;;;;;;;4.22;1.40;;;;;;;;;;4965142;28;20054;-79
2023/03/06 01:16:31;;;;;;;6.28;1.52;;;;;;;;;;4966705;28;20038;-80
2023/03/06 01:18:57;;;;;;;4.25;1.40;;;;;;;;;;4966815;28;20046;-80
2023/03/06 01:21:23;;;;;;;2.63;1.83;;;;;;;;;;4985268;28;20045;-80
2023/03/06 01:23:49;;;;;;;4.78;1.60;;;;;;;;;;4986458;28;20101;-80
2023/03/06 01:26:15;;;;;;;3.80;1.65;;;;;;;;;;4967684;28;20050;-80
2023/03/06 01:28:41;;;;;;;4.32;1.55;;;;;;;;;;4986946;28;20556;-80
2023/03/06 01:31:08;;;;;;;2.70;1.52;;;;;;;;;;4999352;28;20141;-81
2023/03/06 01:33:34;;;;;;;3.00;1.60;;;;;;;;;;4968167;28;20038;-79
2023/03/06 01:36:03;;;;;;;2.13;1.40;;;;;;;;;;4992833;28;20050;-80
2023/03/06 01:38:29;;;;;;;1.75;1.58;;;;;;;;;;4969883;28;20039;-80
2023/03/06 01:40:55;;;;;;;7.05;2.05;;;;;;;;;;4987703;28;20038;-80
2023/03/06 01:43:27;;;;;;;3.20;1.90;;;;;;;;;;4966304;28;20046;-80
2023/03/06 01:46:17;;;;;;;3.35;2.03;;;;;;;;;;4966986;28;20497;-80
2023/03/06 01:48:44;;;;;;;2.30;2.00;;;;;;;;;;4985746;28;20100;-80
2023/03/06 01:51:10;;;;;;;1.75;1.58;;;;;;;;;;4990456;28;20558;-80
2023/03/06 01:53:36;;;;;;;2.55;1.40;;;;;;;;;;4987407;28;20045;-80
2023/03/06 01:56:02;;;;;;;1.10;1.10;;;;;;;;;;4971519;28;20133;-80
2023/03/06 01:58:28;;;;;;;1.63;1.30;;;;;;;;;;4987418;28;20062;-80
2023/03/06 02:00:54;;;;;;;2.92;1.45;;;;;;;;;;4971203;28;20046;-80
2023/03/06 02:03:22;;;;;;;3.70;1.65;;;;;;;;;;4967885;28;20046;-80
2023/03/06 02:05:48;;;;;;;1.85;1.30;;;;;;;;;;4971436;28;20042;-80
2023/03/06 02:08:15;;;;;;;1.33;1.23;;;;;;;;;;4969055;28;20486;-80
2023/03/06 02:10:42;;;;;;;1.60;1.30;;;;;;;;;;4960871;28;20050;-80
2023/03/06 02:13:08;;;;;;;1.60;1.20;;;;;;;;;;4989065;28;20046;-80
2023/03/06 02:15:35;;;;;;;1.38;1.30;;;;;;;;;;4967481;28;20057;-80
2023/03/06 02:18:01;;;;;;;5.95;1.67;;;;;;;;;;5006764;28;20092;-80
2023/03/06 02:20:36;;;;;;;1.80;1.40;;;;;;;;;;4971065;28;21732;-80
2023/03/06 02:23:05;;;;;;;3.33;1.30;;;;;;;;;;4991942;28;20038;-80
2023/03/06 02:25:34;;;;;;;2.28;1.42;;;;;;;;;;4988363;28;20129;-80
2023/03/06 02:28:00;;;;;;;1.13;1.13;;;;;;;;;;4975569;28;20058;-80
2023/03/06 02:30:27;;;;;;;2.35;1.75;;;;;;;;;;5002076;28;21149;-80
2023/03/06 02:32:53;;;;;;;1.30;1.30;;;;;;;;;;4990456;28;20128;-80
2023/03/06 02:35:21;;;;;;;1.33;1.33;;;;;;;;;;4987956;28;20097;-80
2023/03/06 02:37:47;;;;;;;1.80;1.30;;;;;;;;;;4973908;28;20043;-80
2023/03/06 02:40:14;;;;;;;1.67;1.35;;;;;;;;;;4989578;28;20079;-80
2023/03/06 02:42:45;;;;;;;2.03;1.40;;;;;;;;;;4969475;28;20061;-80
2023/03/06 02:45:11;;;;;;;1.75;1.65;;;;;;;;;;4984427;28;20046;-80
2023/03/06 02:47:37;;;;;;;1.40;1.30;;;;;;;;;;4981872;28;20409;-80
2023/03/06 02:50:04;;;;;;;1.85;1.50;;;;;;;;;;4995692;28;20042;-80
2023/03/06 02:52:30;;;;;;;1.50;1.40;;;;;;;;;;4986225;28;20506;-80
2023/03/06 02:54:56;;;;;;;2.45;1.55;;;;;;;;;;4967537;28;20116;-80
2023/03/06 02:57:22;;;;;;;1.70;1.60;;;;;;;;;;4999609;28;20046;-80
2023/03/06 02:59:48;;;;;;;3.92;1.70;;;;;;;;;;4986246;28;20729;-80
2023/03/06 03:02:14;;;;;;;4.07;1.50;;;;;;;;;;4982808;28;20715;-80
2023/03/06 03:04:40;;;;;;;1.60;1.50;;;;;;;;;;4965667;28;20046;-80
2023/03/06 03:07:07;;;;;;;1.40;1.38;;;;;;;;;;4969090;28;20050;-80
2023/03/06 03:09:35;;;;;;;3.08;1.50;;;;;;;;;;4987509;28;20045;-80
2023/03/06 03:12:02;;;;;;;1.50;1.40;;;;;;;;;;4979334;28;20513;-80
2023/03/06 03:14:28;;;;;;;1.92;1.50;;;;;;;;;;4966133;28;20054;-80
2023/03/06 03:16:54;;;;;;;1.95;1.50;;;;;;;;;;4984452;28;20053;-80
2023/03/06 03:19:20;;;;;;;1.55;1.45;;;;;;;;;;4985505;28;20397;-80
2023/03/06 03:21:46;;;;;;;1.95;1.70;;;;;;;;;;4973853;28;20398;-80
2023/03/06 03:24:12;;;;;;;3.20;1.70;;;;;;;;;;4994437;28;20045;-80
2023/03/06 03:26:38;;;;;;;1.95;1.70;;;;;;;;;;5004330;28;20050;-80
2023/03/06 03:29:04;;;;;;;1.60;1.50;;;;;;;;;;4982849;28;20053;-80
2023/03/06 03:31:31;;;;;;;3.22;1.77;;;;;;;;;;4977432;28;20678;-80
2023/03/06 03:33:57;;;;;;;2.85;1.60;;;;;;;;;;4970857;28;20056;-80
2023/03/06 03:36:24;;;;;;;1.85;1.35;;;;;;;;;;5004575;28;20042;-80
2023/03/06 03:38:50;;;;;;;2.05;1.70;;;;;;;;;;4995888;28;20042;-81
2023/03/06 03:41:16;;;;;;;3.45;1.52;;;;;;;;;;4987113;28;20073;-80
2023/03/06 03:43:42;;;;;;;1.70;1.60;;;;;;;;;;4993892;28;20037;-80
2023/03/06 03:46:09;;;;;;;3.42;1.75;;;;;;;;;;4969772;28;20078;-81
2023/03/06 03:48:35;;;;;;;3.97;1.75;;;;;;;;;;4993594;28;20043;-80
2023/03/06 03:51:05;;;;;;;2.08;1.60;;;;;;;;;;4969328;28;20058;-80
2023/03/06 03:53:31;;;;;;;2.35;1.83;;;;;;;;;;4987399;28;20043;-80
2023/03/06 03:55:57;;;;;;;2.08;1.98;;;;;;;;;;4974295;28;20401;-80
2023/03/06 03:58:23;;;;;;;3.33;1.80;;;;;;;;;;4970075;28;20057;-81
2023/03/06 04:00:49;;;;;;;1.75;1.60;;;;;;;;;;4971704;28;20042;-80
2023/03/06 04:03:15;;;;;;;2.00;1.80;;;;;;;;;;4984133;28;20054;-80
2023/03/06 04:05:41;;;;;;;2.08;1.70;;;;;;;;;;4960995;28;20053;-80
2023/03/06 04:08:07;;;;;;;2.38;1.65;;;;;;;;;;4986133;28;20050;-80
2023/03/06 04:10:33;;;;;;;3.15;1.95;;;;;;;;;;4970131;28;20096;-80
2023/03/06 04:12:59;;;;;;;1.95;1.65;;;;;;;;;;4981012;28;20050;-80
2023/03/06 04:15:25;;;;;;;2.00;1.80;;;;;;;;;;4987336;28;20049;-80
2023/03/06 04:17:52;;;;;;;3.03;1.90;;;;;;;;;;4985411;28;20038;-81
2023/03/06 04:20:19;;;;;;;2.03;1.90;;;;;;;;;;4968444;28;20054;-80
2023/03/06 04:22:45;;;;;;;4.60;2.00;;;;;;;;;;4989229;28;20058;-80
2023/03/06 04:25:11;;;;;;;2.42;1.73;;;;;;;;;;4985864;28;20093;-80
2023/03/06 04:27:37;;;;;;;4.63;1.80;;;;;;;;;;4990112;28;20438;-80
2023/03/06 04:30:04;;;;;;;5.03;1.90;;;;;;;;;;4990806;28;20502;-81
2023/03/06 04:32:30;;;;;;;1.70;1.60;;;;;;;;;;4989189;28;20077;-80
2023/03/06 04:34:56;;;;;;;1.60;1.50;;;;;;;;;;4992097;28;20501;-80
2023/03/06 04:37:24;;;;;;;2.15;1.83;;;;;;;;;;4979603;28;20398;-80
2023/03/06 04:39:50;;;;;;;1.60;1.50;;;;;;;;;;4974501;28;20050;-81
2023/03/06 04:42:16;;;;;;;2.15;1.63;;;;;;;;;;4973649;28;20136;-80
2023/03/06 04:44:42;;;;;;;1.75;1.65;;;;;;;;;;5005927;28;20125;-80
2023/03/06 04:47:08;;;;;;;2.00;1.80;;;;;;;;;;4997736;28;20055;-80
2023/03/06 04:49:34;;;;;;;1.77;1.67;;;;;;;;;;4972057;28;20561;-80
2023/03/06 04:52:00;;;;;;;2.22;1.60;;;;;;;;;;4990037;28;20128;-81
2023/03/06 04:54:26;;;;;;;1.92;1.70;;;;;;;;;;4985031;28;20088;-80
2023/03/06 04:56:52;;;;;;;1.83;1.50;;;;;;;;;;4973800;28;20111;-80
2023/03/06 04:59:18;;;;;;;3.60;1.80;;;;;;;;;;4968447;28;20588;-80
2023/03/06 05:01:45;;;;;;;3.00;1.70;;;;;;;;;;4969886;28;20054;-81
2023/03/06 05:04:11;;;;;;;2.15;1.58;;;;;;;;;;4984149;28;20062;-80
2023/03/06 05:06:37;;;;;;;3.13;1.90;;;;;;;;;;4972760;28;20042;-81
2023/03/06 05:09:03;;;;;;;1.67;1.58;;;;;;;;;;4983563;28;20042;-81
2023/03/06 05:11:29;;;;;;;2.85;2.35;;;;;;;;;;4968919;28;20042;-81
2023/03/06 05:13:55;;;;;;;1.90;1.80;;;;;;;;;;4967627;28;20149;-81
2023/03/06 05:16:21;;;;;;;2.10;1.90;;;;;;;;;;4969118;28;20081;-80
2023/03/06 05:18:47;;;;;;;2.42;1.90;;;;;;;;;;4973950;28;20092;-81
2023/03/06 05:21:13;;;;;;;2.10;2.00;;;;;;;;;;4968002;28;20394;-80
2023/03/06 05:23:39;;;;;;;2.20;2.00;;;;;;;;;;4987625;28;20039;-80
2023/03/06 05:26:10;;;;;;;3.25;2.40;;;;;;;;;;4974591;28;20101;-81
2023/03/06 05:28:36;;;;;;;2.20;2.00;;;;;;;;;;5001956;28;20038;-80
2023/03/06 05:31:02;;;;;;;2.17;1.95;;;;;;;;;;4977191;28;20038;-81
2023/03/06 05:33:28;;;;;;;3.03;2.17;;;;;;;;;;4969890;28;20051;-81
2023/03/06 05:35:54;;;;;;;3.25;2.13;;;;;;;;;;4976222;28;20065;-81
2023/03/06 05:38:21;;;;;;;3.28;2.30;;;;;;;;;;4996945;28;20042;-81
2023/03/06 05:40:47;;;;;;;4.63;3.22;;;;;;;;;;5009960;28;20512;-80
2023/03/06 05:43:13;;;;;;;5.78;3.00;;;;;;;;;;5001738;28;20042;-81
2023/03/06 05:45:40;;;;;;;5.53;2.83;;;;;;;;;;5001201;28;20084;-80
2023/03/06 05:48:06;;;;;;;4.45;2.80;;;;;;;;;;4983157;28;20092;-81
2023/03/06 05:50:32;;;;;;;3.38;2.40;;;;;;;;;;4971441;28;21752;-81
2023/03/06 05:52:59;;;;;;;3.20;2.40;;;;;;;;;;4996341;28;20073;-81
2023/03/06 05:55:25;;;;;;;5.35;2.33;;;;;;;;;;4986858;28;20050;-81
2023/03/06 05:57:51;;;;;;;3.72;2.20;;;;;;;;;;4973909;28;20049;-81
2023/03/06 06:00:18;;;;;;;2.80;2.47;;;;;;;;;;4990015;28;20049;-81
2023/03/06 06:02:44;;;;;;;4.45;2.33;;;;;;;;;;4970725;28;20042;-81
2023/03/06 06:05:11;;;;;;;3.25;2.17;;;;;;;;;;4975686;28;20889;-81
2023/03/06 06:07:37;;;;;;;3.95;2.40;;;;;;;;;;4984996;28;20049;-81
2023/03/06 06:10:03;;;;;;;4.90;2.88;;;;;;;;;;4989660;28;20502;-81
2023/03/06 06:12:29;;;;;;;4.80;3.05;;;;;;;;;;4988805;28;20498;-81
2023/03/06 06:14:55;;;;;;;4.93;2.90;;;;;;;;;;4969424;28;20057;-81
2023/03/06 06:17:21;;;;;;;7.05;2.20;;;;;;;;;;4972894;28;20129;-81
2023/03/06 06:19:47;;;;;;;2.10;1.92;;;;;;;;;;4967758;28;20065;-81
2023/03/06 06:22:13;;;;;;;4.28;1.80;;;;;;;;;;4969849;28;20368;-81
2023/03/06 06:24:39;;;;;;;4.60;1.70;;;;;;;;;;4969346;28;20046;-81
2023/03/06 06:27:06;;;;;;;2.17;1.80;;;;;;;;;;4974233;28;20130;-81
2023/03/06 06:29:32;;;;;;;4.03;1.63;;;;;;;;;;5008149;28;20149;-81
2023/03/06 06:31:59;;;;;;;5.38;2.13;;;;;;;;;;4967409;28;20046;-81
2023/03/06 06:34:25;;;;;;;2.92;2.08;;;;;;;;;;4975918;28;20050;-81
2023/03/06 06:36:53;;;;;;;6.47;1.90;;;;;;;;;;4975240;28;20057;-80
2023/03/06 06:39:19;;;;;;;2.60;1.50;;;;;;;;;;4973454;28;20050;-81
2023/03/06 06:41:47;;;;;;;4.32;1.90;;;;;;;;;;4990559;28;20073;-79
2023/03/06 06:44:14;;;;;;;4.60;2.00;;;;;;;;;;4992778;28;20795;-80
2023/03/06 06:46:42;;;;;;;5.75;2.20;;;;;;;;;;4976798;28;20095;-80
2023/03/06 06:49:08;;;;;;;2.85;1.92;;;;;;;;;;4997081;28;20049;-80
2023/03/06 06:51:34;;;;;;;3.00;1.80;;;;;;;;;;4993021;28;20133;-80
2023/03/06 06:54:00;;;;;;;3.28;1.90;;;;;;;;;;4979508;28;20050;-80
2023/03/06 06:56:27;;;;;;;1.90;1.67;;;;;;;;;;5004468;28;20152;-80
2023/03/06 06:58:53;;;;;;;2.17;1.42;;;;;;;;;;4974471;28;20042;-80
2023/03/06 07:01:20;;;;;;;3.42;1.67;;;;;;;;;;4985695;28;20372;-80
2023/03/06 07:03:46;;;;;;;2.88;1.50;;;;;;;;;;4974136;28;20046;-80
2023/03/06 07:06:12;;;;;;;1.60;1.50;;;;;;;;;;4984035;28;20129;-80
2023/03/06 07:08:38;;;;;;;4.18;1.70;;;;;;;;;;4990395;28;20066;-80
2023/03/06 07:11:08;;;;;;;3.25;1.98;;;;;;;;;;4984163;28;20070;-80
2023/03/06 07:13:34;;;;;;;2.15;1.65;;;;;;;;;;4967134;28;20520;-80
2023/03/06 07:16:00;;;;;;;2.22;1.80;;;;;;;;;;4994628;28;20388;-80
2023/03/06 07:18:26;;;;;;;4.70;2.25;;;;;;;;;;5000920;28;21608;-80
2023/03/06 07:20:53;;;;;;;5.47;2.63;;;;;;;;;;5001674;28;20078;-80
2023/03/06 07:23:19;;;;;;;5.43;2.47;;;;;;;;;;4999455;28;20050;-79
2023/03/06 07:25:45;;;;;;;2.90;2.42;;;;;;;;;;4967001;28;20505;-80
2023/03/06 07:28:11;;;;;;;5.03;2.35;;;;;;;;;;4988000;28;20043;-80
2023/03/06 07:30:39;;;;;;;5.60;2.05;;;;;;;;;;4963847;28;20504;-79
2023/03/06 07:33:05;;;;;;;4.15;2.58;;;;;;;;;;4993634;28;20042;-79
2023/03/06 07:35:31;;;;;;;3.55;2.40;;;;;;;;;;4996912;28;20118;-79
2023/03/06 07:37:57;;;;;;;4.38;2.65;;;;;;;;;;4977467;28;20482;-79
2023/03/06 07:40:24;;;;;;;3.63;2.80;;;;;;;;;;4981091;28;20078;-79
2023/03/06 07:42:52;;;;;;;5.50;2.83;;;;;;;;;;4967527;28;20049;-78
2023/03/06 07:45:18;;;;;;;4.50;2.33;;;;;;;;;;4993272;28;20605;-79
2023/03/06 07:47:44;;;;;;;4.72;2.28;;;;;;;;;;4964356;28;20077;-80
2023/03/06 07:50:11;;;;;;;4.60;2.53;;;;;;;;;;5003437;28;20054;-80
2023/03/06 07:52:37;;;;;;;3.95;2.28;;;;;;;;;;4966390;28;20582;-80
2023/03/06 07:55:03;;;;;;;5.80;2.53;;;;;;;;;;4971661;28;20698;-80
2023/03/06 07:57:29;;;;;;;3.15;2.33;;;;;;;;;;4996181;28;20046;-80
2023/03/06 07:59:55;;;;;;;3.97;2.50;;;;;;;;;;4966490;28;20043;-80
2023/03/06 08:02:21;;;;;;;2.40;2.20;;;;;;;;;;4964992;28;20058;-80
2023/03/06 08:04:51;;;;;;;5.53;2.70;;;;;;;;;;4977910;28;20097;-80
2023/03/06 08:07:17;;;;;;;4.22;2.10;;;;;;;;;;4968727;28;20057;-79
2023/03/06 08:09:43;;;;;;;5.15;2.63;;;;;;;;;;4972904;28;20050;-78
2023/03/06 08:12:09;;;;;;;3.80;2.67;;;;;;;;;;4972191;28;20235;-80
2023/03/06 08:14:35;;;;;;;2.50;2.28;;;;;;;;;;4973392;28;20558;-79
2023/03/06 08:17:02;;;;;;;3.28;2.53;;;;;;;;;;4977272;28;20034;-77
2023/03/06 08:19:28;;;;;;;4.18;2.70;;;;;;;;;;4960974;28;20049;-78
2023/03/06 08:21:54;;;;;;;7.60;2.80;;;;;;;;;;4968657;28;20125;-79
2023/03/06 08:24:20;;;;;;;5.20;2.50;;;;;;;;;;4971084;28;20065;-79
2023/03/06 08:26:46;;;;;;;4.00;2.55;;;;;;;;;;4970917;28;20063;-79
2023/03/06 08:29:12;;;;;;;4.68;2.33;;;;;;;;;;4971556;28;20066;-78
2023/03/06 08:31:39;;;;;;;4.70;2.20;;;;;;;;;;4986175;28;20145;-79
2023/03/06 08:34:07;;;;;;;3.83;2.20;;;;;;;;;;4972885;28;20047;-78
2023/03/06 08:36:33;;;;;;;3.55;1.60;;;;;;;;;;4952722;29;20062;-78
2023/03/06 08:38:59;;;;;;;2.85;1.95;;;;;;;;;;4967773;28;20043;-78
2023/03/06 08:41:25;;;;;;;2.97;1.73;;;;;;;;;;4966338;28;20178;-79
2023/03/06 08:43:51;;;;;;;3.53;1.60;;;;;;;;;;4966558;28;20070;-78
2023/03/06 08:46:18;;;;;;;1.50;1.40;;;;;;;;;;4965236;28;20059;-78
2023/03/06 08:48:46;;;;;;;2.42;1.50;;;;;;;;;;4979822;28;20201;-78
2023/03/06 08:51:12;;;;;;;1.42;1.33;;;;;;;;;;4954534;28;20085;-78
2023/03/06 08:53:39;;;;;;;2.42;1.20;;;;;;;;;;4967551;28;20146;-78
2023/03/06 08:56:05;;;;;;;5.03;1.63;;;;;;;;;;4970364;28;20447;-78
2023/03/06 08:58:31;;;;;;;4.10;1.50;;;;;;;;;;4970795;28;20077;-78
2023/03/06 09:00:58;;;;;;;3.33;1.40;;;;;;;;;;4978315;28;20057;-78
2023/03/06 09:03:24;;;;;;;1.77;1.30;;;;;;;;;;4976570;28;20038;-78
2023/03/06 09:05:50;;;;;;;1.88;1.40;;;;;;;;;;4969883;28;20039;-78
2023/03/06 09:08:16;;;;;;;3.72;1.60;;;;;;;;;;4966757;28;20043;-78
2023/03/06 09:10:46;;;;;;;2.92;1.48;;;;;;;;;;4993884;28;20039;-78
2023/03/06 09:13:12;;;;;;;2.47;1.40;;;;;;;;;;4974609;28;20054;-78
2023/03/06 09:15:38;;;;;;;1.92;1.50;;;;;;;;;;4972889;28;20490;-78
2023/03/06 09:18:04;;;;;;;2.70;1.38;;;;;;;;;;4971258;28;20073;-78
2023/03/06 09:20:30;;;;;;;2.42;1.60;;;;;;;;;;4969029;28;20042;-79
2023/03/06 09:22:56;;;;;;;4.25;1.60;;;;;;;;;;4990513;28;20050;-78
2023/03/06 09:25:23;;;;;;;2.65;1.65;;;;;;;;;;4971808;28;20449;-78
2023/03/06 09:27:49;;;;;;;3.13;1.70;;;;;;;;;;4977848;28;20050;-79
2023/03/06 09:30:16;;;;;;;1.42;1.33;;;;;;;;;;4990900;28;20047;-78
2023/03/06 09:32:42;;;;;;;2.65;1.30;;;;;;;;;;4990498;28;20042;-78
2023/03/06 09:35:08;;;;;;;2.53;1.35;;;;;;;;;;4978996;28;20671;-78
2023/03/06 09:37:34;;;;;;;1.45;1.35;;;;;;;;;;4976364;28;20057;-78
2023/03/06 09:40:00;;;;;;;4.50;1.95;;;;;;;;;;4984574;28;20390;-78
2023/03/06 09:42:27;;;;;;;3.45;1.50;;;;;;;;;;4989725;28;20096;-78
2023/03/06 09:44:54;;;;;;;2.17;1.50;;;;;;;;;;4976823;28;20054;-78
2023/03/06 09:47:27;;;;;;;2.00;1.38;;;;;;;;;;4977132;28;20054;-78
2023/03/06 09:49:56;;;;;;;1.85;1.40;;;;;;;;;;4970129;28;20049;-78
2023/03/06 09:52:30;;;;;;;2.20;1.67;;;;;;;;;;4978119;28;20050;-78
2023/03/06 09:54:59;;;;;;;2.17;1.35;;;;;;;;;;4976385;28;20406;-78
2023/03/06 09:57:26;;;;;;;2.75;1.30;;;;;;;;;;4977704;28;20054;-78
2023/03/06 09:59:58;;;;;;;2.80;1.50;;;;;;;;;;4977306;28;20042;-78
2023/03/06 10:02:40;;;;;;;3.00;1.40;;;;;;;;;;4976294;28;20088;-78
2023/03/06 10:05:09;;;;;;;2.92;1.40;;;;;;;;;;4973414;28;20053;-78
2023/03/06 10:07:42;;;;;;;1.73;1.55;;;;;;;;;;4973571;28;20057;-79
2023/03/06 10:10:14;;;;;;;1.60;1.40;;;;;;;;;;4981492;28;20088;-78
2023/03/06 10:12:46;;;;;;;2.30;1.40;;;;;;;;;;4983576;28;20042;-79
2023/03/06 10:15:16;;;;;;;2.08;1.30;;;;;;;;;;4982483;28;20054;-79
2023/03/06 10:17:43;;;;;;;1.50;1.50;;;;;;;;;;4967981;28;20077;-79
2023/03/06 10:20:17;;;;;;;3.65;1.50;;;;;;;;;;4990924;28;20035;-78
2023/03/06 10:22:58;;;;;;;3.45;1.35;;;;;;;;;;4984724;28;20089;-79
2023/03/06 10:25:31;;;;;;;2.70;1.40;;;;;;;;;;4985255;28;20055;-79
2023/03/06 10:28:02;;;;;;;1.55;1.33;;;;;;;;;;4984915;28;20054;-79
2023/03/06 10:30:47;;;;;;;1.30;1.30;;;;;;;;;;4975984;28;20042;-78
2023/03/06 10:33:31;;;;;;;1.80;1.23;;;;;;;;;;4993552;28;20136;-78
2023/03/06 10:35:57;;;;;;;1.83;1.35;;;;;;;;;;4975206;28;20058;-79
2023/03/06 10:38:29;;;;;;;3.15;1.55;;;;;;;;;;4976380;28;20134;-79
2023/03/06 10:40:55;;;;;;;3.13;1.30;;;;;;;;;;4973090;28;20042;-78
2023/03/06 10:43:22;;;;;;;4.10;1.33;;;;;;;;;;4973356;28;20403;-78
2023/03/06 10:45:50;;;;;;;4.47;1.50;;;;;;;;;;4990972;28;20385;-78
2023/03/06 10:48:18;;;;;;;1.25;1.17;;;;;;;;;;4971729;28;20046;-78
2023/03/06 10:50:44;;;;;;;1.23;1.13;;;;;;;;;;4987622;28;20056;-79
2023/03/06 10:53:22;;;;;;;1.65;1.30;;;;;;;;;;4993685;28;20121;-78
2023/03/06 10:55:52;;;;;;;4.45;1.45;;;;;;;;;;4991914;28;20058;-79
2023/03/06 10:58:21;;;;;;;4.70;1.50;;;;;;;;;;4975936;28;20047;-79
2023/03/06 11:00:58;;;;;;;2.95;1.30;;;;;;;;;;4982311;28;20058;-78
2023/03/06 11:03:25;;;;;;;1.77;1.60;;;;;;;;;;4967487;28;20097;-79
2023/03/06 11:05:56;;;;;;;3.88;1.40;;;;;;;;;;4974177;28;20429;-79
2023/03/06 11:08:22;;;;;;;3.05;1.58;;;;;;;;;;4973488;28;20073;-79
2023/03/06 11:11:02;;;;;;;4.18;1.50;;;;;;;;;;4987006;28;20049;-78
2023/03/06 11:13:30;;;;;;;3.75;1.50;;;;;;;;;;4969103;28;20059;-78
2023/03/06 11:15:58;;;;;;;2.38;1.40;;;;;;;;;;4967485;28;20146;-78
2023/03/06 11:18:33;;;;;;;1.48;1.35;;;;;;;;;;4971934;28;20187;-79
2023/03/06 11:20:59;;;;;;;2.10;1.60;;;;;;;;;;4968514;28;20121;-79
2023/03/06 11:23:35;;;;;;;4.28;1.30;;;;;;;;;;5001944;28;20047;-78
2023/03/06 11:26:06;;;;;;;2.22;1.30;;;;;;;;;;4967570;28;20503;-78
2023/03/06 11:28:34;;;;;;;3.20;1.42;;;;;;;;;;4972082;28;20092;-79
2023/03/06 11:31:03;;;;;;;4.32;1.50;;;;;;;;;;4997575;28;20042;-78
2023/03/06 11:33:48;;;;;;;2.40;1.50;;;;;;;;;;4967267;28;20385;-79
2023/03/06 11:36:15;;;;;;;1.70;1.50;;;;;;;;;;4966783;28;20050;-79
2023/03/06 11:38:43;;;;;;;2.70;1.50;;;;;;;;;;5001622;28;20066;-78
2023/03/06 11:41:28;;;;;;;1.95;1.33;;;;;;;;;;4969481;28;20472;-78
2023/03/06 11:44:02;;;;;;;1.40;1.30;;;;;;;;;;4966178;28;20043;-78
2023/03/06 11:46:32;;;;;;;1.73;1.40;;;;;;;;;;4969255;28;20050;-78
2023/03/06 11:49:15;;;;;;;1.70;1.45;;;;;;;;;;5001391;28;20407;-78
2023/03/06 11:51:43;;;;;;;4.80;1.98;;;;;;;;;;5002739;28;20105;-78
2023/03/06 11:54:12;;;;;;;1.85;1.63;;;;;;;;;;4999932;28;20523;-78
2023/03/06 11:56:49;;;;;;;5.55;1.67;;;;;;;;;;4968637;28;20046;-78
2023/03/06 11:59:21;;;;;;;2.67;1.70;;;;;;;;;;4968278;28;20047;-78
2023/03/06 12:01:52;;;;;;;3.83;1.70;;;;;;;;;;5001895;28;20046;-78
2023/03/06 12:04:37;;;;;;;2.38;1.60;;;;;;;;;;4969323;28;20038;-78
2023/03/06 12:07:21;;;;;;;3.03;1.55;;;;;;;;;;4997804;28;20399;-78
2023/03/06 12:09:51;;;;;;;2.70;1.73;;;;;;;;;;4970861;28;20047;-79
2023/03/06 12:12:36;;;;;;;4.93;1.70;;;;;;;;;;4993642;28;20053;-79
2023/03/06 12:15:15;;;;;;;2.50;1.75;;;;;;;;;;5002936;28;20130;-79
2023/03/06 12:18:00;;;;;;;2.15;1.80;;;;;;;;;;4968182;28;20193;-79
2023/03/06 12:20:44;;;;;;;1.90;1.70;;;;;;;;;;5001475;28;20057;-79
2023/03/06 12:23:30;;;;;;;2.00;1.80;;;;;;;;;;4970405;28;20042;-78
2023/03/06 12:26:16;;;;;;;1.70;1.60;;;;;;;;;;4999246;28;20282;-79
2023/03/06 12:28:50;;;;;;;1.80;1.70;;;;;;;;;;4964073;28;20042;-78
2023/03/06 12:31:23;;;;;;;2.22;1.85;;;;;;;;;;4967841;28;20070;-79
2023/03/06 12:33:49;;;;;;;;;;;;;;;;;;4964027;28;20510;-78
2023/03/06 12:36:29;;;;;;;4.65;1.75;;;;;;;;;;4970215;28;19980;-79
2023/03/06 12:39:14;;;;;;;2.38;1.63;;;;;;;;;;4965737;28;20404;-78
2023/03/06 12:41:49;;;;;;;1.90;1.80;;;;;;;;;;4968348;28;20046;-79
2023/03/06 12:44:15;;;;;;;3.25;1.90;;;;;;;;;;4997577;28;20047;-79
2023/03/06 12:46:44;;;;;;;2.60;1.70;;;;;;;;;;5000764;28;20035;-79
2023/03/06 12:49:22;;;;;;;2.03;1.90;;;;;;;;;;4998363;28;20093;-78
2023/03/06 12:51:48;;;;;;;3.78;1.90;;;;;;;;;;4991837;28;20125;-79
2023/03/06 12:54:14;;;;;;;3.83;2.20;;;;;;;;;;4998188;28;20505;-79
2023/03/06 12:56:41;;;;;;;4.78;1.70;;;;;;;;;;4970461;28;20046;-79
2023/03/06 12:59:37;;;;;;;2.00;1.80;;;;;;;;;;4970208;28;20070;-79
2023/03/06 13:02:03;;;;;;;4.78;2.00;;;;;;;;;;4969213;28;20479;-79
2023/03/06 13:04:35;;;;;;;4.57;2.08;;;;;;;;;;4968430;28;20051;-79
2023/03/06 13:07:07;;;;;;;3.70;1.90;;;;;;;;;;4968942;28;20422;-78
2023/03/06 13:09:52;;;;;;;5.13;1.85;;;;;;;;;;4969783;28;20045;-78
2023/03/06 13:12:25;;;;;;;1.90;1.80;;;;;;;;;;4968878;28;20042;-79
2023/03/06 13:14:52;;;;;;;3.15;1.98;;;;;;;;;;4986733;28;20112;-79
2023/03/06 13:17:24;;;;;;;2.97;2.08;;;;;;;;;;4985373;28;20046;-79
2023/03/06 13:20:29;;;;;;;3.95;2.30;;;;;;;;;;4988152;28;20054;-79
2023/03/06 13:22:56;;;;;;;4.30;2.20;;;;;;;;;;4931051;29;20040;-78
2023/03/06 13:25:22;;;;;;;2.25;1.95;;;;;;;;;;4930657;29;20103;-79
2023/03/06 13:27:54;;;;;;;7.45;2.10;;;;;;;;;;4954786;28;20128;-79
2023/03/06 13:30:24;;;;;;;4.30;1.98;;;;;;;;;;4986708;28;20042;-79
2023/03/06 13:32:51;;;;;;;2.33;1.70;;;;;;;;;;4973337;28;20047;-78
2023/03/06 13:35:26;;;;;;;2.10;1.90;;;;;;;;;;5006392;28;20046;-79
2023/03/06 13:37:52;;;;;;;4.63;2.80;;;;;;;;;;5002250;28;20077;-79
2023/03/06 13:40:48;;;;;;;1.83;1.73;;;;;;;;;;4972753;28;20057;-79
2023/03/06 13:43:18;;;;;;;5.20;2.13;;;;;;;;;;4955895;28;20054;-79
2023/03/06 13:45:45;;;;;;;3.10;2.15;;;;;;;;;;4965626;28;20517;-78
2023/03/06 13:48:41;;;;;;;5.10;2.22;;;;;;;;;;4970750;28;20125;-78
2023/03/06 13:51:14;;;;;;;3.60;2.00;;;;;;;;;;4968078;28;20122;-78
2023/03/06 13:53:40;;;;;;;;;;;;;;;;;;4983717;28;20053;-79
2023/03/06 13:56:17;;;;;;;4.18;2.40;;;;;;;;;;4975204;28;19921;-79
2023/03/06 13:58:43;;;;;;;5.75;2.60;;;;;;;;;;4992196;28;20096;-79
2023/03/06 14:01:22;;;;;;;4.78;2.40;;;;;;;;;;4963728;28;20475;-80
2023/03/06 14:04:07;;;;;;;3.97;2.30;;;;;;;;;;4988366;28;20069;-79
2023/03/06 14:06:37;;;;;;;5.35;2.58;;;;;;;;;;4974280;28;20125;-79
2023/03/06 14:09:04;;;;;;;5.55;2.55;;;;;;;;;;4973811;28;20050;-79
2023/03/06 14:11:31;;;;;;;2.53;2.33;;;;;;;;;;4974396;28;20042;-79
2023/03/06 14:13:57;;;;;;;3.00;2.20;;;;;;;;;;4977407;28;20058;-79
2023/03/06 14:16:28;;;;;;;2.58;2.22;;;;;;;;;;4967089;28;20051;-79
2023/03/06 14:18:58;;;;;;;4.63;2.50;;;;;;;;;;4957535;28;20070;-79
2023/03/06 14:21:30;;;;;;;3.03;2.67;;;;;;;;;;4977425;28;20509;-79
2023/03/06 14:24:00;;;;;;;5.32;3.50;;;;;;;;;;4994495;28;20050;-79
2023/03/06 14:26:28;;;;;;;6.60;5.18;;;;;;;;;;4993369;28;20054;-79
2023/03/06 14:28:57;;;;;;;6.78;5.47;;;;;;;;;;4990868;28;20100;-79
2023/03/06 14:31:40;;;;;;;7.32;4.40;;;;;;;;;;4961078;28;20097;-79
2023/03/06 14:34:07;;;;;;;7.50;4.20;;;;;;;;;;4974997;28;20046;-79
2023/03/06 14:36:33;;;;;;;8.48;4.50;;;;;;;;;;4969219;28;20042;-80
2023/03/06 14:39:03;;;;;;;3.30;2.92;;;;;;;;;;4986142;28;20042;-79
2023/03/06 14:41:30;;;;;;;6.25;3.00;;;;;;;;;;4969912;28;20045;-79
2023/03/06 14:44:16;;;;;;;4.93;3.28;;;;;;;;;;4976804;28;20060;-79
2023/03/06 14:46:42;;;;;;;9.38;4.22;;;;;;;;;;4992019;28;20049;-78
2023/03/06 14:49:09;;;;;;;6.43;3.90;;;;;;;;;;5013950;28;20133;-78
2023/03/06 14:51:46;;;;;;;4.80;3.40;;;;;;;;;;4988525;28;20058;-78